createdAt,value
2022-08-17T00:06:57.424Z,99860.47
2022-08-17T00:27:01.883Z,99872.63
2022-08-17T00:47:05.178Z,99867.69
2022-08-17T01:07:12.239Z,99862.31
2022-08-17T01:27:18.448Z,99898.16
2022-08-17T01:47:28.452Z,99885.53
2022-08-17T02:07:59.434Z,99886.63
2022-08-17T02:28:00.668Z,99901.22
2022-08-17T02:48:04.779Z,99878.78
2022-08-17T03:08:13.024Z,99883.34
2022-08-17T03:28:17.437Z,99890.00
2022-08-17T03:48:39.851Z,99897.50
2022-08-17T04:08:43.556Z,99917.69
2022-08-17T04:28:47.034Z,99941.38
2022-08-17T04:48:53.357Z,99946.59
2022-08-17T05:08:58.811Z,99961.69
2022-08-17T05:29:03.061Z,99983.38
2022-08-17T05:49:11.209Z,99977.78
2022-08-17T06:09:25.741Z,99974.03
2022-08-17T06:29:37.968Z,99983.91
2022-08-17T06:49:55.456Z,100001.12
2022-08-17T07:10:00.343Z,100008.25
2022-08-17T07:30:10.973Z,100001.84
2022-08-17T07:50:28.998Z,99994.66
2022-08-17T08:10:45.338Z,100006.75
2022-08-17T08:30:59.255Z,100007.84
2022-08-17T08:51:24.709Z,99997.03
2022-08-17T09:12:02.796Z,99986.31
2022-08-17T09:32:18.432Z,99978.91
2022-08-17T09:52:30.118Z,99977.72
2022-08-17T10:12:49.084Z,99949.06
2022-08-17T10:33:23.588Z,99953.00
2022-08-17T10:53:32.930Z,99940.84
2022-08-17T11:13:40.163Z,99936.97
2022-08-17T11:33:44.780Z,99928.06
2022-08-17T11:53:48.362Z,99903.75
2022-08-17T12:13:56.105Z,99902.00
2022-08-17T12:34:00.567Z,99882.97
2022-08-17T12:54:03.843Z,99872.28
2022-08-17T13:14:10.707Z,99855.69
2022-08-17T13:34:18.868Z,99855.38
2022-08-17T13:54:30.176Z,99837.41
2022-08-17T14:14:33.642Z,99838.88
2022-08-17T14:34:37.219Z,99833.59
2022-08-17T14:54:45.567Z,99818.00
2022-08-17T15:14:49.346Z,99834.72
2022-08-17T15:35:13.361Z,99819.91
2022-08-17T15:55:20.781Z,99820.00
2022-08-17T16:15:26.997Z,99831.97
2022-08-17T16:35:30.433Z,99816.88
2022-08-17T16:55:35.847Z,99810.78
2022-08-17T17:15:47.424Z,99814.28
2022-08-17T17:35:54.974Z,99826.34
2022-08-17T17:56:34.289Z,99842.47
2022-08-17T18:16:42.950Z,99870.09
2022-08-17T18:36:46.601Z,99871.87
2022-08-17T18:56:59.154Z,99891.16
2022-08-17T19:17:09.194Z,99913.59
2022-08-17T19:37:32.756Z,99913.81
2022-08-17T19:57:43.700Z,99925.47
2022-08-17T20:17:48.620Z,99933.69
2022-08-17T20:37:57.505Z,99921.16
2022-08-17T20:58:16.238Z,99913.91
2022-08-17T21:18:47.641Z,99910.28
2022-08-17T21:38:57.431Z,99923.47
2022-08-17T21:59:16.258Z,99931.87
2022-08-17T22:19:21.909Z,99937.81
2022-08-17T22:39:26.336Z,99974.59
2022-08-17T23:00:04.802Z,99980.69
2022-08-17T23:20:12.194Z,100013.13
2022-08-17T23:40:15.792Z,100038.97
